Time;durP1;ratioP1;P1;durP2;ratioP2;P2;SDS_P1;SDS_P2;PMS_P1;PMS_P2;Temp;Humidity;BMP_temperature;BMP_pressure;BME280_temperature;BME280_humidity;BME280_pressure;Samples;Min_cycle;Max_cycle;Signal;HPM_P1;HPM_P2
2021/01/20 00:02:06;;;;;;;20.03;9.47;;;;;;;;;;5092434;28;20708;-75
2021/01/20 00:05:13;;;;;;;20.00;9.50;;;;;;;;;;5094441;28;20591;-74
2021/01/20 00:08:20;;;;;;;20.63;9.73;;;;;;;;;;5101632;28;20255;-75
2021/01/20 00:11:25;;;;;;;22.93;10.33;;;;;;;;;;5092099;28;20259;-75
2021/01/20 00:14:30;;;;;;;17.83;9.00;;;;;;;;;;5112178;28;20232;-75
2021/01/20 00:17:34;;;;;;;20.23;9.67;;;;;;;;;;5103903;28;20227;-74
2021/01/20 00:20:40;;;;;;;22.90;9.70;;;;;;;;;;5093847;28;20216;-73
2021/01/20 00:23:44;;;;;;;19.90;9.73;;;;;;;;;;5101904;28;20739;-73
2021/01/20 00:26:49;;;;;;;20.00;9.80;;;;;;;;;;5096954;28;20587;-74
2021/01/20 00:29:54;;;;;;;22.83;10.90;;;;;;;;;;5084671;28;20258;-73
2021/01/20 00:32:59;;;;;;;21.30;9.60;;;;;;;;;;5101027;28;20317;-73
2021/01/20 00:36:04;;;;;;;21.17;10.23;;;;;;;;;;5093327;28;20228;-72
2021/01/20 00:39:09;;;;;;;21.27;9.97;;;;;;;;;;5099967;28;20217;-75
2021/01/20 00:42:14;;;;;;;20.13;9.90;;;;;;;;;;5105461;28;20252;-74
2021/01/20 00:45:19;;;;;;;19.07;9.60;;;;;;;;;;5095749;28;20266;-75
2021/01/20 00:48:26;;;;;;;19.90;9.67;;;;;;;;;;5100316;28;20575;-75
2021/01/20 00:51:33;;;;;;;23.10;10.90;;;;;;;;;;5088358;28;20229;-75
2021/01/20 00:54:38;;;;;;;21.87;10.13;;;;;;;;;;5091541;28;20197;-75
2021/01/20 00:57:43;;;;;;;19.00;9.40;;;;;;;;;;5094848;28;20217;-75
2021/01/20 01:00:47;;;;;;;24.80;10.43;;;;;;;;;;5101743;28;20213;-75
2021/01/20 01:03:52;;;;;;;21.60;10.40;;;;;;;;;;5090672;28;20317;-75
2021/01/20 01:07:00;;;;;;;22.10;10.53;;;;;;;;;;5092198;28;20715;-75
2021/01/20 01:10:06;;;;;;;23.23;10.37;;;;;;;;;;5092732;28;20205;-75
2021/01/20 01:13:33;;;;;;;21.43;10.07;;;;;;;;;;5116392;28;20284;-74
2021/01/20 01:17:01;;;;;;;22.70;10.97;;;;;;;;;;5107790;28;20249;-74
2021/01/20 01:20:16;;;;;;;20.10;10.17;;;;;;;;;;5084903;28;20225;-73
2021/01/20 01:23:23;;;;;;;22.37;10.90;;;;;;;;;;5080774;28;20275;-75
2021/01/20 01:26:28;;;;;;;25.57;11.23;;;;;;;;;;5086259;28;20362;-74
2021/01/20 01:29:32;;;;;;;23.83;11.50;;;;;;;;;;5093625;28;20236;-74
2021/01/20 01:32:43;;;;;;;23.27;11.67;;;;;;;;;;5081310;28;20367;-74
2021/01/20 01:35:54;;;;;;;23.90;11.23;;;;;;;;;;5095812;28;20766;-74
2021/01/20 01:38:59;;;;;;;26.37;11.83;;;;;;;;;;5090094;28;20565;-73
2021/01/20 01:42:14;;;;;;;24.13;11.90;;;;;;;;;;5082105;28;20229;-73
2021/01/20 01:45:19;;;;;;;29.50;13.20;;;;;;;;;;5088183;28;20228;-73
2021/01/20 01:48:23;;;;;;;30.77;13.40;;;;;;;;;;5097194;28;20300;-73
2021/01/20 01:51:29;;;;;;;27.77;12.97;;;;;;;;;;5094535;28;20312;-72
2021/01/20 01:55:06;;;;;;;33.90;14.10;;;;;;;;;;5076604;28;20278;-74
2021/01/20 01:58:29;;;;;;;33.23;14.87;;;;;;;;;;5107485;28;20205;-74
2021/01/20 02:01:42;;;;;;;32.07;14.27;;;;;;;;;;5098479;28;20592;-74
2021/01/20 02:04:50;;;;;;;25.70;11.53;;;;;;;;;;5098913;28;20270;-73
2021/01/20 02:07:56;;;;;;;27.70;13.23;;;;;;;;;;5089295;28;20224;-72
2021/01/20 02:11:13;;;;;;;29.87;12.77;;;;;;;;;;5092010;28;20258;-72
2021/01/20 02:14:30;;;;;;;30.63;12.90;;;;;;;;;;5093033;28;20220;-73
2021/01/20 02:17:58;;;;;;;30.13;13.00;;;;;;;;;;5102114;28;20292;-74
2021/01/20 02:21:44;;;;;;;30.47;13.33;;;;;;;;;;5095477;28;20224;-74
2021/01/20 02:25:12;;;;;;;30.57;13.33;;;;;;;;;;5102021;28;20307;-73
2021/01/20 02:28:55;;;;;;;33.47;13.23;;;;;;;;;;5090385;28;20213;-72
2021/01/20 02:32:09;;;;;;;33.33;12.40;;;;;;;;;;5091043;28;20220;-73
2021/01/20 02:35:14;;;;;;;63.97;14.93;;;;;;;;;;5092778;28;20205;-74
2021/01/20 02:38:20;;;;;;;91.10;15.63;;;;;;;;;;5093672;28;20330;-73
2021/01/20 02:41:51;;;;;;;220.43;18.83;;;;;;;;;;5105488;28;20227;-72
2021/01/20 02:45:00;;;;;;;255.80;21.73;;;;;;;;;;5097132;28;20232;-74
2021/01/20 02:48:23;;;;;;;213.83;19.70;;;;;;;;;;5084669;28;20283;-72
2021/01/20 02:51:32;;;;;;;413.23;23.03;;;;;;;;;;5089283;28;20359;-73
2021/01/20 02:54:58;;;;;;;303.13;21.90;;;;;;;;;;5095329;28;20214;-74
2021/01/20 02:58:07;;;;;;;373.57;23.90;;;;;;;;;;5103863;28;20209;-74
2021/01/20 03:01:18;;;;;;;471.33;24.97;;;;;;;;;;5093841;28;20208;-73
2021/01/20 03:04:24;;;;;;;291.87;21.57;;;;;;;;;;5112529;28;20220;-74
2021/01/20 03:07:30;;;;;;;521.23;24.73;;;;;;;;;;5111168;28;20212;-73
2021/01/20 03:10:35;;;;;;;374.60;22.43;;;;;;;;;;5111318;28;20228;-74
2021/01/20 03:13:41;;;;;;;351.23;21.33;;;;;;;;;;5114719;28;20212;-73
2021/01/20 03:16:45;;;;;;;302.30;18.97;;;;;;;;;;5106270;28;20216;-73
2021/01/20 03:19:51;;;;;;;317.80;18.00;;;;;;;;;;5104695;28;20249;-73
2021/01/20 03:22:55;;;;;;;329.33;17.93;;;;;;;;;;5095170;28;20268;-73
2021/01/20 03:26:00;;;;;;;302.50;18.87;;;;;;;;;;5097216;28;20725;-73
2021/01/20 03:29:04;;;;;;;251.57;16.23;;;;;;;;;;5099788;28;20255;-75
2021/01/20 03:32:09;;;;;;;295.87;16.27;;;;;;;;;;5108922;28;20292;-73
2021/01/20 03:35:15;;;;;;;174.47;14.17;;;;;;;;;;5112770;28;20285;-73
2021/01/20 03:38:19;;;;;;;167.93;14.23;;;;;;;;;;5097332;28;20321;-72
2021/01/20 03:41:24;;;;;;;165.63;14.23;;;;;;;;;;5103629;28;20229;-73
2021/01/20 03:44:29;;;;;;;175.47;13.93;;;;;;;;;;5105042;28;20225;-73
2021/01/20 03:47:34;;;;;;;191.77;13.33;;;;;;;;;;5106945;28;20225;-72
2021/01/20 03:50:39;;;;;;;157.07;12.80;;;;;;;;;;5111406;28;20212;-73
2021/01/20 03:53:44;;;;;;;118.70;11.90;;;;;;;;;;5129804;28;20227;-73
2021/01/20 03:56:48;;;;;;;121.43;12.00;;;;;;;;;;5114244;28;20213;-72
2021/01/20 03:59:53;;;;;;;86.03;11.80;;;;;;;;;;5111873;28;20272;-73
2021/01/20 04:02:58;;;;;;;68.97;11.20;;;;;;;;;;5110360;28;20263;-72
2021/01/20 04:06:16;;;;;;;149.03;12.13;;;;;;;;;;5081404;28;20233;-73
2021/01/20 04:09:20;;;;;;;118.97;11.80;;;;;;;;;;5091955;28;20213;-72
2021/01/20 04:12:25;;;;;;;129.80;12.57;;;;;;;;;;5090010;28;20228;-73
2021/01/20 04:15:30;;;;;;;221.97;13.97;;;;;;;;;;5100220;28;20684;-73
2021/01/20 04:18:34;;;;;;;181.47;11.70;;;;;;;;;;5089606;28;20213;-73
2021/01/20 04:21:40;;;;;;;211.47;14.23;;;;;;;;;;5100117;28;20254;-73
2021/01/20 04:24:44;;;;;;;200.37;13.60;;;;;;;;;;5081464;28;20224;-72
2021/01/20 04:27:49;;;;;;;154.40;14.00;;;;;;;;;;5111284;28;20250;-73
2021/01/20 04:30:54;;;;;;;97.10;11.40;;;;;;;;;;5092444;28;20243;-72
2021/01/20 04:34:02;;;;;;;68.80;11.03;;;;;;;;;;5080538;28;20232;-72
2021/01/20 04:37:07;;;;;;;95.80;11.47;;;;;;;;;;5086234;28;20220;-72
2021/01/20 04:40:12;;;;;;;82.40;11.57;;;;;;;;;;5087385;28;20214;-73
2021/01/20 04:43:17;;;;;;;151.30;11.57;;;;;;;;;;5093661;28;20224;-73
2021/01/20 04:46:23;;;;;;;145.53;12.90;;;;;;;;;;5087662;28;20290;-72
2021/01/20 04:49:28;;;;;;;122.30;12.80;;;;;;;;;;5093385;28;20324;-72
2021/01/20 04:52:34;;;;;;;199.37;13.50;;;;;;;;;;5088408;28;20274;-72
2021/01/20 04:55:39;;;;;;;92.67;10.93;;;;;;;;;;5080562;28;20764;-73
2021/01/20 04:58:44;;;;;;;57.40;9.23;;;;;;;;;;5107709;28;20569;-72
2021/01/20 05:01:51;;;;;;;40.03;11.63;;;;;;;;;;5084785;28;20236;-73
2021/01/20 05:04:56;;;;;;;87.23;12.53;;;;;;;;;;5080542;28;20332;-73
2021/01/20 05:08:02;;;;;;;60.67;10.90;;;;;;;;;;5094585;28;20262;-73
2021/01/20 05:11:06;;;;;;;123.00;13.23;;;;;;;;;;5101738;28;20235;-73
2021/01/20 05:14:12;;;;;;;69.30;12.40;;;;;;;;;;5100107;28;20201;-72
2021/01/20 05:17:16;;;;;;;38.43;11.30;;;;;;;;;;5092942;28;20212;-73
2021/01/20 05:20:26;;;;;;;91.53;11.73;;;;;;;;;;5098610;28;20240;-73
2021/01/20 05:23:32;;;;;;;59.87;10.80;;;;;;;;;;5099165;28;20572;-74
2021/01/20 05:26:43;;;;;;;37.23;9.60;;;;;;;;;;5099390;28;20235;-74
2021/01/20 05:29:57;;;;;;;50.40;12.17;;;;;;;;;;5085044;28;20201;-74
2021/01/20 05:33:02;;;;;;;94.17;11.63;;;;;;;;;;5099408;28;20250;-73
2021/01/20 05:36:07;;;;;;;42.27;10.10;;;;;;;;;;5085192;28;20208;-74
2021/01/20 05:39:19;;;;;;;52.80;11.00;;;;;;;;;;5096685;28;20292;-73
2021/01/20 05:42:24;;;;;;;81.50;12.07;;;;;;;;;;5081219;28;20670;-73
2021/01/20 05:45:29;;;;;;;39.07;11.03;;;;;;;;;;5098253;28;20300;-72
2021/01/20 05:48:45;;;;;;;67.10;12.33;;;;;;;;;;5097249;28;20319;-72
2021/01/20 05:51:49;;;;;;;57.00;12.53;;;;;;;;;;5097430;28;20225;-72
2021/01/20 05:54:55;;;;;;;75.70;12.20;;;;;;;;;;5087365;28;20196;-72
2021/01/20 05:58:00;;;;;;;249.30;15.10;;;;;;;;;;5094293;28;20332;-72
2021/01/20 06:01:09;;;;;;;93.67;11.67;;;;;;;;;;5098705;28;20208;-72
2021/01/20 06:04:13;;;;;;;55.87;9.87;;;;;;;;;;5081165;28;20217;-72
2021/01/20 06:07:18;;;;;;;53.53;9.27;;;;;;;;;;5087807;28;20221;-72
2021/01/20 06:10:24;;;;;;;110.13;10.50;;;;;;;;;;5094582;28;20704;-72
2021/01/20 06:13:29;;;;;;;94.63;10.17;;;;;;;;;;5087704;28;20213;-72
2021/01/20 06:16:35;;;;;;;22.87;6.67;;;;;;;;;;5080808;28;20201;-72
2021/01/20 06:19:43;;;;;;;56.67;8.37;;;;;;;;;;5082507;28;20255;-72
2021/01/20 06:22:48;;;;;;;45.13;7.67;;;;;;;;;;5092810;28;20225;-72
2021/01/20 06:25:59;;;;;;;49.00;7.67;;;;;;;;;;5079081;28;20317;-72
2021/01/20 06:29:07;;;;;;;38.73;7.57;;;;;;;;;;5105039;28;20207;-72
2021/01/20 06:32:16;;;;;;;41.90;8.00;;;;;;;;;;5086150;28;20227;-73
2021/01/20 06:35:21;;;;;;;31.70;7.50;;;;;;;;;;5082788;28;20637;-73
2021/01/20 06:38:36;;;;;;;60.43;8.17;;;;;;;;;;5087204;28;20640;-72
2021/01/20 06:41:42;;;;;;;45.17;8.73;;;;;;;;;;5107789;28;20277;-72
2021/01/20 06:45:13;;;;;;;35.37;8.70;;;;;;;;;;5095733;28;20224;-72
2021/01/20 06:48:17;;;;;;;40.57;9.80;;;;;;;;;;5086984;28;20193;-72
2021/01/20 06:51:23;;;;;;;38.33;8.90;;;;;;;;;;5093834;27;20208;-71
2021/01/20 06:54:34;;;;;;;30.33;8.53;;;;;;;;;;5079020;28;20201;-73
2021/01/20 06:57:41;;;;;;;41.33;9.90;;;;;;;;;;5094740;28;20760;-74
2021/01/20 07:01:11;;;;;;;57.80;9.13;;;;;;;;;;5098551;28;20216;-74
2021/01/20 07:04:43;;;;;;;31.57;8.77;;;;;;;;;;5094109;28;20313;-72
2021/01/20 07:07:53;;;;;;;31.37;8.77;;;;;;;;;;5096429;28;20243;-73
2021/01/20 07:11:02;;;;;;;25.53;8.83;;;;;;;;;;5078800;28;20241;-74
2021/01/20 07:14:26;;;;;;;31.57;9.00;;;;;;;;;;5089791;28;20205;-74
2021/01/20 07:17:34;;;;;;;23.07;8.37;;;;;;;;;;5085668;28;20205;-72
2021/01/20 07:20:40;;;;;;;22.00;8.07;;;;;;;;;;5079169;28;20241;-72
2021/01/20 07:23:46;;;;;;;21.53;7.60;;;;;;;;;;5088293;28;20217;-72
2021/01/20 07:26:50;;;;;;;21.30;8.37;;;;;;;;;;5102008;28;20282;-72
2021/01/20 07:29:56;;;;;;;35.30;8.07;;;;;;;;;;5110529;28;20202;-73
2021/01/20 07:33:00;;;;;;;22.43;8.20;;;;;;;;;;5089661;28;20307;-72
2021/01/20 07:36:16;;;;;;;17.47;6.90;;;;;;;;;;5098611;28;20286;-73
2021/01/20 07:39:21;;;;;;;29.97;7.53;;;;;;;;;;5100726;28;20733;-72
2021/01/20 07:42:37;;;;;;;30.30;8.03;;;;;;;;;;5081574;28;20713;-72
2021/01/20 07:45:44;;;;;;;24.87;7.77;;;;;;;;;;5082263;28;20286;-73
2021/01/20 07:48:49;;;;;;;26.43;8.93;;;;;;;;;;5096245;28;20602;-73
2021/01/20 07:52:00;;;;;;;34.23;10.83;;;;;;;;;;5081287;28;20260;-73
2021/01/20 07:55:05;;;;;;;21.43;9.47;;;;;;;;;;5102395;28;20232;-73
2021/01/20 07:58:10;;;;;;;30.90;8.20;;;;;;;;;;5090748;28;20209;-73
2021/01/20 08:01:25;;;;;;;28.37;9.27;;;;;;;;;;5096696;28;20209;-73
2021/01/20 08:04:30;;;;;;;28.20;9.13;;;;;;;;;;5093718;28;20339;-74
2021/01/20 08:07:34;;;;;;;39.83;8.47;;;;;;;;;;5090829;28;20656;-74
2021/01/20 08:10:40;;;;;;;32.83;8.20;;;;;;;;;;5108319;28;20216;-75
2021/01/20 08:13:45;;;;;;;28.73;7.90;;;;;;;;;;5095667;28;20220;-75
2021/01/20 08:16:52;;;;;;;22.87;7.33;;;;;;;;;;5117978;28;20251;-74
2021/01/20 08:19:58;;;;;;;17.83;7.60;;;;;;;;;;5114706;28;20228;-75
2021/01/20 08:23:04;;;;;;;18.00;7.23;;;;;;;;;;5092940;28;20340;-74
2021/01/20 08:26:08;;;;;;;17.23;7.57;;;;;;;;;;5093541;28;20325;-75
2021/01/20 08:29:13;;;;;;;19.73;8.43;;;;;;;;;;5100439;28;20247;-75
2021/01/20 08:32:19;;;;;;;16.73;7.27;;;;;;;;;;5092638;28;20225;-74
2021/01/20 08:35:31;;;;;;;19.93;8.40;;;;;;;;;;5083603;28;20205;-73
2021/01/20 08:38:36;;;;;;;25.53;8.97;;;;;;;;;;5096257;28;20217;-73
2021/01/20 08:41:42;;;;;;;19.73;7.50;;;;;;;;;;5085097;28;20732;-74
2021/01/20 08:45:05;;;;;;;20.60;8.63;;;;;;;;;;5108844;28;20271;-75
2021/01/20 08:48:13;;;;;;;14.97;6.97;;;;;;;;;;5110536;28;20200;-74
2021/01/20 08:51:19;;;;;;;16.27;7.57;;;;;;;;;;5082664;28;20205;-74
2021/01/20 08:54:24;;;;;;;18.77;7.93;;;;;;;;;;5110053;28;20228;-74
2021/01/20 08:57:29;;;;;;;18.40;8.07;;;;;;;;;;5096968;28;20255;-74
2021/01/20 09:00:40;;;;;;;19.97;8.30;;;;;;;;;;5097335;28;20220;-73
2021/01/20 09:03:54;;;;;;;17.47;7.37;;;;;;;;;;5081636;28;20732;-75
2021/01/20 09:06:59;;;;;;;16.83;8.07;;;;;;;;;;5096431;28;20570;-75
2021/01/20 09:10:04;;;;;;;17.93;8.27;;;;;;;;;;5100660;28;20254;-74
2021/01/20 09:13:09;;;;;;;21.67;9.00;;;;;;;;;;5085320;28;20279;-75
2021/01/20 09:16:14;;;;;;;21.47;9.20;;;;;;;;;;5106072;28;20226;-73
2021/01/20 09:19:19;;;;;;;22.63;10.17;;;;;;;;;;5085138;28;20640;-73
2021/01/20 09:22:30;;;;;;;25.07;10.27;;;;;;;;;;5115349;27;20216;-74
2021/01/20 09:25:38;;;;;;;19.73;8.73;;;;;;;;;;5092713;28;20267;-75
2021/01/20 09:28:43;;;;;;;20.07;8.40;;;;;;;;;;5107156;28;20652;-75
2021/01/20 09:31:47;;;;;;;16.70;7.87;;;;;;;;;;5099713;28;20225;-75
2021/01/20 09:34:53;;;;;;;19.83;9.20;;;;;;;;;;5102155;28;20282;-74
2021/01/20 09:37:58;;;;;;;21.67;8.90;;;;;;;;;;5100334;28;20282;-73
2021/01/20 09:41:02;;;;;;;23.90;9.47;;;;;;;;;;5100325;28;20228;-74
2021/01/20 09:44:13;;;;;;;19.10;9.13;;;;;;;;;;5100147;28;20217;-74
2021/01/20 09:47:17;;;;;;;23.80;9.43;;;;;;;;;;5082943;28;20239;-74
2021/01/20 09:50:23;;;;;;;17.27;8.40;;;;;;;;;;5095717;28;20197;-73
2021/01/20 09:53:28;;;;;;;22.17;9.70;;;;;;;;;;5098126;28;20323;-73
2021/01/20 09:56:33;;;;;;;25.60;9.23;;;;;;;;;;5099827;28;20531;-73
2021/01/20 09:59:37;;;;;;;23.67;9.43;;;;;;;;;;5099123;28;20738;-73
2021/01/20 10:02:43;;;;;;;20.13;9.50;;;;;;;;;;5112775;28;20232;-72
2021/01/20 10:05:50;;;;;;;22.47;10.17;;;;;;;;;;5098810;28;20270;-73
2021/01/20 10:08:54;;;;;;;22.90;9.93;;;;;;;;;;5098567;28;20220;-73
2021/01/20 10:11:58;;;;;;;22.03;10.63;;;;;;;;;;5099152;28;20228;-73
2021/01/20 10:15:04;;;;;;;22.57;9.87;;;;;;;;;;5098778;28;20813;-73
2021/01/20 10:18:09;;;;;;;20.33;8.93;;;;;;;;;;5098809;28;20242;-72
2021/01/20 10:21:14;;;;;;;23.73;10.20;;;;;;;;;;5107436;28;20205;-73
2021/01/20 10:24:19;;;;;;;27.33;11.77;;;;;;;;;;5094886;28;20288;-73
2021/01/20 10:27:30;;;;;;;23.17;10.67;;;;;;;;;;5096529;28;20255;-73
2021/01/20 10:30:35;;;;;;;24.17;11.43;;;;;;;;;;5098142;28;20270;-74
2021/01/20 10:33:40;;;;;;;30.00;11.73;;;;;;;;;;5099046;28;20255;-74
2021/01/20 10:36:45;;;;;;;35.67;12.50;;;;;;;;;;5099100;28;20193;-74
2021/01/20 10:39:50;;;;;;;25.97;11.40;;;;;;;;;;5097964;28;20216;-74
2021/01/20 10:42:54;;;;;;;30.97;12.87;;;;;;;;;;5093303;28;20790;-74
2021/01/20 10:45:59;;;;;;;31.53;12.93;;;;;;;;;;5109455;28;20232;-74
2021/01/20 10:49:04;;;;;;;28.90;13.17;;;;;;;;;;5111499;28;20296;-73
2021/01/20 10:52:09;;;;;;;26.57;11.50;;;;;;;;;;5090788;28;20236;-73
2021/01/20 10:55:14;;;;;;;30.27;11.87;;;;;;;;;;5088313;28;20255;-74
2021/01/20 10:58:18;;;;;;;28.93;12.40;;;;;;;;;;5101784;28;20216;-74
2021/01/20 11:01:25;;;;;;;26.73;12.30;;;;;;;;;;5113635;27;20269;-74
2021/01/20 11:04:30;;;;;;;25.60;11.80;;;;;;;;;;5112074;27;20211;-74
2021/01/20 11:07:36;;;;;;;35.93;13.43;;;;;;;;;;5105136;27;20232;-74
2021/01/20 11:10:40;;;;;;;26.20;11.33;;;;;;;;;;5102321;28;20200;-73
2021/01/20 11:13:45;;;;;;;24.83;11.50;;;;;;;;;;5098708;28;20212;-73
2021/01/20 11:16:51;;;;;;;27.00;11.47;;;;;;;;;;5090062;28;20233;-73
2021/01/20 11:19:56;;;;;;;32.50;14.17;;;;;;;;;;5101179;28;20205;-73
2021/01/20 11:23:01;;;;;;;28.43;12.60;;;;;;;;;;5096400;28;20728;-74
2021/01/20 11:26:09;;;;;;;29.50;12.97;;;;;;;;;;5096474;28;20216;-74
2021/01/20 11:29:14;;;;;;;37.93;13.77;;;;;;;;;;5104034;27;20592;-74
2021/01/20 11:32:18;;;;;;;29.63;11.73;;;;;;;;;;5097825;28;20269;-74
2021/01/20 11:35:23;;;;;;;29.00;12.33;;;;;;;;;;5098193;28;20205;-73
2021/01/20 11:38:28;;;;;;;28.07;12.77;;;;;;;;;;5099717;28;20212;-73
2021/01/20 11:41:33;;;;;;;28.77;12.40;;;;;;;;;;5100614;28;20236;-73
2021/01/20 11:44:38;;;;;;;32.90;12.77;;;;;;;;;;5101510;28;20690;-74
2021/01/20 11:47:42;;;;;;;30.10;12.93;;;;;;;;;;5094103;28;20210;-73
2021/01/20 11:50:49;;;;;;;35.37;12.43;;;;;;;;;;5101515;28;20201;-74
2021/01/20 11:53:54;;;;;;;27.43;12.90;;;;;;;;;;5116046;28;20640;-74
2021/01/20 11:56:59;;;;;;;31.10;13.37;;;;;;;;;;5099621;28;20204;-71
2021/01/20 12:00:04;;;;;;;34.20;14.20;;;;;;;;;;5095395;28;20250;-72
2021/01/20 12:03:16;;;;;;;39.90;15.07;;;;;;;;;;5109340;28;20719;-72
2021/01/20 12:06:21;;;;;;;33.97;14.53;;;;;;;;;;5100935;28;20223;-72
2021/01/20 12:09:26;;;;;;;30.97;13.93;;;;;;;;;;5095158;28;20580;-72
2021/01/20 12:12:31;;;;;;;35.83;14.50;;;;;;;;;;5096587;28;20297;-72
2021/01/20 12:15:36;;;;;;;34.20;13.83;;;;;;;;;;5097069;28;20730;-73
2021/01/20 12:18:41;;;;;;;32.07;13.90;;;;;;;;;;5096590;28;20213;-72
2021/01/20 12:21:45;;;;;;;33.03;14.00;;;;;;;;;;5096510;28;20239;-72
2021/01/20 12:24:51;;;;;;;37.07;16.27;;;;;;;;;;5096923;28;20221;-72
2021/01/20 12:27:56;;;;;;;36.57;14.70;;;;;;;;;;5101073;28;20679;-72
2021/01/20 12:31:02;;;;;;;32.67;13.77;;;;;;;;;;5101410;28;20255;-73
2021/01/20 12:34:06;;;;;;;32.40;13.57;;;;;;;;;;5095338;28;20318;-73
2021/01/20 12:37:11;;;;;;;32.03;14.30;;;;;;;;;;5098136;28;20750;-73
2021/01/20 12:40:17;;;;;;;33.30;13.80;;;;;;;;;;5101249;28;20212;-73
2021/01/20 12:43:23;;;;;;;32.87;14.77;;;;;;;;;;5100281;28;20658;-72
2021/01/20 12:46:28;;;;;;;37.50;15.43;;;;;;;;;;5100541;28;20283;-72
2021/01/20 12:49:32;;;;;;;33.87;14.50;;;;;;;;;;5093492;28;20197;-73
2021/01/20 12:52:37;;;;;;;33.63;14.20;;;;;;;;;;5094220;28;20278;-73
2021/01/20 12:55:42;;;;;;;33.50;14.73;;;;;;;;;;5094764;28;20197;-73
2021/01/20 12:58:47;;;;;;;35.30;14.67;;;;;;;;;;5120187;28;20200;-72
2021/01/20 13:01:52;;;;;;;32.87;15.20;;;;;;;;;;5119634;28;20302;-73
2021/01/20 13:04:56;;;;;;;41.17;14.77;;;;;;;;;;5100661;28;20220;-72
2021/01/20 13:08:01;;;;;;;35.47;15.23;;;;;;;;;;5100897;28;20247;-72
2021/01/20 13:11:07;;;;;;;41.77;17.13;;;;;;;;;;5080102;28;20213;-72
2021/01/20 13:14:12;;;;;;;37.33;16.17;;;;;;;;;;5107776;28;20221;-72
2021/01/20 13:17:17;;;;;;;37.03;15.27;;;;;;;;;;5115643;28;20204;-72
2021/01/20 13:20:22;;;;;;;34.83;14.93;;;;;;;;;;5100547;28;20212;-73
2021/01/20 13:23:27;;;;;;;32.20;15.43;;;;;;;;;;5101375;28;20264;-72
2021/01/20 13:26:32;;;;;;;30.07;13.90;;;;;;;;;;5103890;28;20239;-73
2021/01/20 13:29:41;;;;;;;38.00;16.60;;;;;;;;;;5081279;28;20193;-73
2021/01/20 13:32:46;;;;;;;39.17;16.90;;;;;;;;;;5080396;28;20224;-74
2021/01/20 13:35:51;;;;;;;45.20;18.00;;;;;;;;;;5079589;28;20232;-72
2021/01/20 13:38:55;;;;;;;36.47;15.80;;;;;;;;;;5093697;28;20800;-72
2021/01/20 13:42:01;;;;;;;41.33;16.70;;;;;;;;;;5103485;28;20221;-72
2021/01/20 13:45:06;;;;;;;189.47;54.73;;;;;;;;;;5097582;28;20253;-71
2021/01/20 13:48:11;;;;;;;52.93;21.03;;;;;;;;;;5079377;28;20218;-72
2021/01/20 13:51:15;;;;;;;39.27;17.90;;;;;;;;;;5079369;28;20238;-72
2021/01/20 13:54:20;;;;;;;37.00;16.80;;;;;;;;;;5079248;28;20209;-72
2021/01/20 13:57:26;;;;;;;40.30;18.07;;;;;;;;;;5079854;28;20266;-72
2021/01/20 14:00:30;;;;;;;51.47;20.30;;;;;;;;;;5081136;28;20255;-76
2021/01/20 14:03:35;;;;;;;44.77;19.30;;;;;;;;;;5080199;28;20927;-75
2021/01/20 14:06:39;;;;;;;45.83;19.90;;;;;;;;;;5091854;28;20232;-75
2021/01/20 14:09:44;;;;;;;43.30;19.47;;;;;;;;;;5079609;28;20221;-75
2021/01/20 14:12:49;;;;;;;52.40;19.57;;;;;;;;;;5092799;28;20232;-74
2021/01/20 14:15:54;;;;;;;40.40;18.67;;;;;;;;;;5097130;28;20239;-74
2021/01/20 14:18:59;;;;;;;43.20;18.27;;;;;;;;;;5098244;28;20712;-74
2021/01/20 14:22:04;;;;;;;41.40;16.87;;;;;;;;;;5109224;28;20256;-74
2021/01/20 14:25:09;;;;;;;42.70;18.47;;;;;;;;;;5091493;28;20220;-73
2021/01/20 14:28:14;;;;;;;41.70;18.30;;;;;;;;;;5097904;28;20204;-73
2021/01/20 14:31:21;;;;;;;43.70;17.70;;;;;;;;;;5094026;28;20665;-73
2021/01/20 14:34:26;;;;;;;39.57;17.13;;;;;;;;;;5115148;28;20219;-75
2021/01/20 14:37:31;;;;;;;40.23;16.77;;;;;;;;;;5114709;28;20274;-72
2021/01/20 14:40:36;;;;;;;41.40;16.73;;;;;;;;;;5102942;28;20204;-74
2021/01/20 14:43:41;;;;;;;44.10;17.50;;;;;;;;;;5102552;28;20338;-73
2021/01/20 14:46:47;;;;;;;39.10;17.27;;;;;;;;;;5114828;28;20220;-74
2021/01/20 14:49:52;;;;;;;40.30;18.10;;;;;;;;;;5096021;28;20252;-73
2021/01/20 14:52:57;;;;;;;36.53;16.87;;;;;;;;;;5100742;28;20227;-73
2021/01/20 14:56:01;;;;;;;40.00;16.73;;;;;;;;;;5098580;28;20270;-72
2021/01/20 14:59:10;;;;;;;36.00;15.00;;;;;;;;;;5111355;28;20213;-74
2021/01/20 15:02:14;;;;;;;35.27;15.90;;;;;;;;;;5096467;28;20225;-75
2021/01/20 15:05:21;;;;;;;31.40;15.30;;;;;;;;;;5111058;28;20815;-71
2021/01/20 15:08:26;;;;;;;44.43;17.47;;;;;;;;;;5100541;28;20204;-72
2021/01/20 15:11:30;;;;;;;42.97;18.53;;;;;;;;;;5095836;28;20235;-72
2021/01/20 15:14:38;;;;;;;45.70;19.17;;;;;;;;;;5094639;28;20316;-72
2021/01/20 15:17:43;;;;;;;50.37;21.87;;;;;;;;;;5092715;28;20243;-72
2021/01/20 15:20:53;;;;;;;46.40;20.00;;;;;;;;;;5105661;27;20216;-72
2021/01/20 15:23:58;;;;;;;35.03;16.67;;;;;;;;;;5091952;28;20244;-72
2021/01/20 15:27:02;;;;;;;42.37;18.60;;;;;;;;;;5117080;27;20324;-73
2021/01/20 15:30:09;;;;;;;50.17;20.93;;;;;;;;;;5092492;28;20272;-73
2021/01/20 15:33:13;;;;;;;66.30;26.23;;;;;;;;;;5098144;28;20228;-75
2021/01/20 15:36:18;;;;;;;57.67;24.30;;;;;;;;;;5083018;28;20354;-72
2021/01/20 15:39:22;;;;;;;53.80;22.80;;;;;;;;;;5107738;27;20227;-72
2021/01/20 15:42:30;;;;;;;46.67;21.00;;;;;;;;;;5086284;28;20333;-71
2021/01/20 15:45:36;;;;;;;47.27;21.20;;;;;;;;;;5095218;28;20224;-74
2021/01/20 15:48:41;;;;;;;39.27;18.67;;;;;;;;;;5099522;28;20744;-72
2021/01/20 15:51:46;;;;;;;51.03;21.47;;;;;;;;;;5089977;28;20237;-74
2021/01/20 15:54:50;;;;;;;51.13;21.57;;;;;;;;;;5085460;28;20275;-74
2021/01/20 15:57:56;;;;;;;50.43;21.50;;;;;;;;;;5088844;28;20278;-72
2021/01/20 16:01:01;;;;;;;48.73;21.27;;;;;;;;;;5114512;27;20360;-72
2021/01/20 16:04:13;;;;;;;46.93;20.00;;;;;;;;;;5098369;28;20224;-72
2021/01/20 16:07:17;;;;;;;43.50;21.07;;;;;;;;;;5095129;28;20223;-73
2021/01/20 16:10:22;;;;;;;51.73;20.77;;;;;;;;;;5092721;28;20630;-72
2021/01/20 16:13:27;;;;;;;49.03;21.60;;;;;;;;;;5096528;28;20224;-72
2021/01/20 16:16:33;;;;;;;50.13;20.60;;;;;;;;;;5095664;28;20325;-73
2021/01/20 16:19:37;;;;;;;47.73;20.80;;;;;;;;;;5091317;28;20752;-72
2021/01/20 16:22:42;;;;;;;48.63;20.23;;;;;;;;;;5093238;28;20716;-72
2021/01/20 16:25:47;;;;;;;44.53;20.93;;;;;;;;;;5094763;28;20213;-73
2021/01/20 16:28:51;;;;;;;48.00;21.30;;;;;;;;;;5094890;28;20493;-73
2021/01/20 16:31:57;;;;;;;47.40;21.07;;;;;;;;;;5105972;27;20645;-72
2021/01/20 16:35:01;;;;;;;45.10;19.70;;;;;;;;;;5091598;28;20273;-74
2021/01/20 16:38:06;;;;;;;45.23;20.57;;;;;;;;;;5095616;28;20259;-74
2021/01/20 16:41:11;;;;;;;44.37;20.47;;;;;;;;;;5106812;28;20682;-75
2021/01/20 16:44:16;;;;;;;45.53;19.90;;;;;;;;;;5101598;28;20246;-74
2021/01/20 16:47:21;;;;;;;42.97;20.70;;;;;;;;;;5096472;28;20247;-75
2021/01/20 16:50:26;;;;;;;44.43;20.93;;;;;;;;;;5086706;28;20236;-73
2021/01/20 16:53:31;;;;;;;54.07;21.77;;;;;;;;;;5098423;28;20213;-74
2021/01/20 16:56:35;;;;;;;45.77;20.60;;;;;;;;;;5097935;28;20228;-74
2021/01/20 16:59:40;;;;;;;45.10;20.40;;;;;;;;;;5080674;28;20233;-73
2021/01/20 17:02:45;;;;;;;51.97;22.83;;;;;;;;;;5096080;28;20294;-73
2021/01/20 17:05:50;;;;;;;55.57;22.57;;;;;;;;;;5087132;28;20226;-72
2021/01/20 17:08:54;;;;;;;62.33;22.67;;;;;;;;;;5091897;28;20240;-74
2021/01/20 17:11:59;;;;;;;155.17;27.23;;;;;;;;;;5086912;28;20230;-74
2021/01/20 17:15:04;;;;;;;76.97;24.77;;;;;;;;;;5083165;28;20250;-74
2021/01/20 17:18:10;;;;;;;74.43;23.40;;;;;;;;;;5089103;28;20208;-75
2021/01/20 17:21:15;;;;;;;90.43;23.97;;;;;;;;;;5083587;28;20217;-74
2021/01/20 17:24:20;;;;;;;76.13;23.47;;;;;;;;;;5098175;28;20339;-74
2021/01/20 17:27:25;;;;;;;202.07;26.87;;;;;;;;;;5118397;28;20223;-74
2021/01/20 17:30:29;;;;;;;192.97;22.60;;;;;;;;;;5105200;28;20303;-74
2021/01/20 17:33:35;;;;;;;151.10;23.70;;;;;;;;;;5111473;27;20207;-74
2021/01/20 17:36:40;;;;;;;166.07;27.57;;;;;;;;;;5099745;28;20718;-73
2021/01/20 17:39:48;;;;;;;184.57;25.20;;;;;;;;;;5095931;28;20208;-73
2021/01/20 17:42:53;;;;;;;167.00;28.50;;;;;;;;;;5092080;28;20275;-72
2021/01/20 17:45:57;;;;;;;166.00;28.77;;;;;;;;;;5094388;28;20236;-72
2021/01/20 17:49:03;;;;;;;165.73;25.90;;;;;;;;;;5104558;27;20623;-72
2021/01/20 17:52:08;;;;;;;173.80;22.70;;;;;;;;;;5087344;28;20290;-72
2021/01/20 17:55:21;;;;;;;148.17;21.17;;;;;;;;;;5095393;28;20711;-73
2021/01/20 17:58:25;;;;;;;211.33;25.67;;;;;;;;;;5097181;28;20731;-72
2021/01/20 18:01:29;;;;;;;128.00;23.43;;;;;;;;;;5105292;27;20233;-73
2021/01/20 18:04:35;;;;;;;149.13;24.63;;;;;;;;;;5098031;28;20220;-73
2021/01/20 18:07:40;;;;;;;161.60;27.77;;;;;;;;;;5092999;28;20670;-73
2021/01/20 18:10:44;;;;;;;177.97;27.97;;;;;;;;;;5109190;28;20692;-73